Time;durP1;ratioP1;P1;durP2;ratioP2;P2;SDS_P1;SDS_P2;PMS_P1;PMS_P2;Temp;Humidity;BMP_temperature;BMP_pressure;BME280_temperature;BME280_humidity;BME280_pressure;Samples;Min_cycle;Max_cycle;Signal;HPM_P1;HPM_P2
2022/10/22 00:01:07;;;;;;;0.97;0.97;;;;;;;11.35;100.00;100840.59;4976829;28;20041;-80
2022/10/22 00:03:32;;;;;;;1.13;1.07;;;;;;;11.35;100.00;100839.75;4977069;28;20065;-80
2022/10/22 00:05:58;;;;;;;1.50;1.23;;;;;;;11.34;100.00;100836.25;4975786;28;20034;-80
2022/10/22 00:08:23;;;;;;;0.97;0.97;;;;;;;11.34;100.00;100835.44;4976696;28;20035;-80
2022/10/22 00:10:48;;;;;;;1.43;1.33;;;;;;;11.32;100.00;100839.78;4976672;28;20038;-80
2022/10/22 00:13:14;;;;;;;2.93;1.20;;;;;;;11.33;100.00;100839.75;4975602;28;20046;-81
2022/10/22 00:15:40;;;;;;;1.03;1.03;;;;;;;11.35;100.00;100839.75;4976754;28;20468;-81
2022/10/22 00:18:05;;;;;;;1.27;1.17;;;;;;;11.37;100.00;100843.16;4975978;28;20035;-81
2022/10/22 00:20:30;;;;;;;0.97;0.97;;;;;;;11.36;100.00;100842.28;4975265;28;20050;-80
2022/10/22 00:22:56;;;;;;;1.23;1.13;;;;;;;11.37;100.00;100837.97;4976058;28;20483;-80
2022/10/22 00:25:21;;;;;;;1.13;1.07;;;;;;;11.39;100.00;100837.06;4976394;28;20440;-80
2022/10/22 00:27:46;;;;;;;1.23;1.00;;;;;;;11.41;100.00;100839.63;4975567;28;20039;-80
2022/10/22 00:30:12;;;;;;;1.23;1.13;;;;;;;11.40;100.00;100837.91;4976341;28;20030;-80
2022/10/22 00:32:37;;;;;;;1.13;1.13;;;;;;;11.38;100.00;100832.75;4976246;28;20468;-80
2022/10/22 00:35:03;;;;;;;1.23;1.13;;;;;;;11.37;100.00;100837.97;4975447;28;20055;-80
2022/10/22 00:37:29;;;;;;;1.50;1.40;;;;;;;11.36;100.00;100836.25;4976110;28;20387;-80
2022/10/22 00:39:54;;;;;;;1.30;1.20;;;;;;;11.33;100.00;100844.09;4975921;28;20019;-81
2022/10/22 00:42:22;;;;;;;1.17;1.10;;;;;;;11.31;100.00;100841.53;4974597;28;20058;-81
2022/10/22 00:45:09;;;;;;;1.30;1.20;;;;;;;11.28;100.00;100844.19;4975796;28;20471;-80
2022/10/22 00:47:40;;;;;;;1.42;1.33;;;;;;;11.29;100.00;100845.91;4975871;28;20029;-80
2022/10/22 00:50:10;;;;;;;1.38;1.30;;;;;;;11.31;100.00;100848.47;4975012;28;20550;-80
2022/10/22 00:52:36;;;;;;;1.10;1.00;;;;;;;11.30;100.00;100841.56;4975767;28;20039;-81
2022/10/22 00:55:01;;;;;;;0.90;0.90;;;;;;;11.28;100.00;100839.84;4974726;28;20046;-81
2022/10/22 00:57:27;;;;;;;1.60;1.50;;;;;;;11.28;100.00;100839.84;4976133;28;20031;-81
2022/10/22 00:59:54;;;;;;;0.90;0.90;;;;;;;11.24;100.00;100838.19;4975213;28;20031;-81
2022/10/22 01:02:20;;;;;;;1.50;1.40;;;;;;;11.22;100.00;100844.28;4975234;28;20487;-81
2022/10/22 01:04:45;;;;;;;1.53;1.40;;;;;;;11.19;100.00;100834.81;4975727;28;20039;-81
2022/10/22 01:07:16;;;;;;;3.10;1.53;;;;;;;11.15;100.00;100840.09;4975342;28;20106;-80
2022/10/22 01:09:52;;;;;;;1.65;1.45;;;;;;;11.13;100.00;100838.38;4975139;28;20027;-81
2022/10/22 01:12:33;;;;;;;1.60;1.50;;;;;;;11.12;100.00;100833.22;4975589;28;20121;-81
2022/10/22 01:15:11;;;;;;;1.23;1.13;;;;;;;11.13;100.00;100832.34;4956126;29;20082;-81
2022/10/22 01:17:59;;;;;;;1.45;1.27;;;;;;;11.13;100.00;100835.78;4973305;28;20034;-80
2022/10/22 01:20:44;;;;;;;2.08;1.27;;;;;;;11.13;100.00;100840.13;4975729;28;20033;-81
2022/10/22 01:23:51;;;;;;;1.75;1.55;;;;;;;11.14;100.00;100826.25;4974607;28;20409;-81
2022/10/22 01:26:35;;;;;;;2.45;1.83;;;;;;;11.16;100.00;100832.25;4975302;28;20042;-81
2022/10/22 01:29:10;;;;;;;1.60;1.50;;;;;;;11.18;100.00;100827.91;4974998;28;20045;-80
2022/10/22 01:31:43;;;;;;;2.38;2.03;;;;;;;11.16;100.00;100824.47;4974424;28;20039;-80
2022/10/22 01:34:10;;;;;;;1.77;1.67;;;;;;;11.19;100.00;100827.03;4975000;28;20038;-80
2022/10/22 01:36:37;;;;;;;2.20;2.00;;;;;;;11.20;100.00;100831.34;4975071;28;20121;-80
2022/10/22 01:39:04;;;;;;;2.10;1.90;;;;;;;11.20;100.00;100826.13;4974334;28;20034;-80
2022/10/22 01:41:29;;;;;;;;;;;;;;;11.22;100.00;100828.69;4975689;28;20102;-80
2022/10/22 01:43:55;;;;;;;2.50;2.00;;;;;;;11.25;100.00;100826.06;4974214;28;20413;-81
2022/10/22 01:46:23;;;;;;;2.25;2.05;;;;;;;11.24;100.00;100821.72;4974438;28;20045;-81
2022/10/22 01:49:18;;;;;;;2.63;2.17;;;;;;;11.24;100.00;100825.22;4975133;28;20030;-81
2022/10/22 01:51:51;;;;;;;5.78;2.50;;;;;;;11.27;100.00;100825.13;4963413;28;20043;-81
2022/10/22 01:54:30;;;;;;;5.38;2.90;;;;;;;11.30;100.00;100828.56;4974460;28;20519;-81
2022/10/22 01:57:35;;;;;;;2.60;2.30;;;;;;;11.32;100.00;100826.78;4975126;28;20031;-81
2022/10/22 02:00:11;;;;;;;2.57;2.30;;;;;;;11.27;100.00;100830.31;4914212;29;20032;-81
2022/10/22 02:02:54;;;;;;;2.30;2.10;;;;;;;11.27;100.00;100832.91;4968068;28;20046;-81
2022/10/22 02:05:36;;;;;;;3.45;2.00;;;;;;;11.25;100.00;100832.13;4974025;28;20034;-81
2022/10/22 02:08:07;;;;;;;1.80;1.70;;;;;;;11.26;100.00;100839.00;4974103;28;20035;-80
2022/10/22 02:10:36;;;;;;;2.15;1.67;;;;;;;11.24;100.00;100833.00;4974308;28;20027;-81
2022/10/22 02:13:03;;;;;;;2.28;2.08;;;;;;;11.24;100.00;100834.72;4973405;28;20038;-81
2022/10/22 02:15:34;;;;;;;2.17;1.98;;;;;;;11.23;100.00;100828.69;4974338;28;20039;-81
2022/10/22 02:18:00;;;;;;;2.33;1.88;;;;;;;11.25;100.00;100833.84;4974216;28;20035;-81
2022/10/22 02:20:31;;;;;;;1.80;1.70;;;;;;;11.25;100.00;100844.22;4973671;28;20396;-81
2022/10/22 02:22:59;;;;;;;1.80;1.70;;;;;;;11.22;100.00;100834.75;4974266;28;20107;-81
2022/10/22 02:25:29;;;;;;;1.95;1.45;;;;;;;11.22;100.00;100839.97;4974616;28;20062;-81
2022/10/22 02:28:14;;;;;;;1.83;1.65;;;;;;;11.22;100.00;100832.16;4973490;28;20030;-81
2022/10/22 02:30:42;;;;;;;2.13;1.90;;;;;;;11.20;100.00;100830.50;4974053;28;20476;-81
2022/10/22 02:33:17;;;;;;;2.30;2.10;;;;;;;11.16;100.00;100834.84;4974068;28;20047;-81
2022/10/22 02:35:43;;;;;;;2.30;1.90;;;;;;;11.12;100.00;100822.81;4973712;28;20065;-81
2022/10/22 02:38:11;;;;;;;1.85;1.75;;;;;;;11.09;100.00;100826.31;4973789;28;20572;-81
2022/10/22 02:40:37;;;;;;;1.70;1.60;;;;;;;11.09;100.00;100828.06;4973432;28;20471;-81
2022/10/22 02:43:04;;;;;;;3.27;1.90;;;;;;;11.06;100.00;100829.00;4973593;28;20041;-81
2022/10/22 02:45:30;;;;;;;1.60;1.50;;;;;;;11.04;100.00;100835.94;4974140;28;20027;-81
2022/10/22 02:47:55;;;;;;;1.80;1.67;;;;;;;11.02;100.00;100831.66;4972867;28;20042;-81
2022/10/22 02:50:20;;;;;;;1.40;1.30;;;;;;;10.97;100.00;100829.16;4974248;28;20023;-81
2022/10/22 02:52:46;;;;;;;1.83;1.73;;;;;;;10.95;100.00;100839.53;4974069;28;20026;-80
2022/10/22 02:55:11;;;;;;;2.43;1.90;;;;;;;10.91;100.00;100840.50;4972738;28;20162;-81
2022/10/22 02:57:36;;;;;;;2.07;1.90;;;;;;;10.88;100.00;100842.25;4972387;28;20031;-81
2022/10/22 03:00:03;;;;;;;3.20;2.10;;;;;;;10.84;100.00;100838.03;4973624;28;20030;-81
2022/10/22 03:02:29;;;;;;;2.85;2.40;;;;;;;10.82;100.00;100836.31;4973316;28;20558;-81
2022/10/22 03:04:54;;;;;;;4.57;2.43;;;;;;;10.83;100.00;100847.53;4975939;28;20198;-81
2022/10/22 03:07:19;;;;;;;4.20;2.60;;;;;;;10.88;100.00;100837.94;4978213;28;20031;-81
2022/10/22 03:09:45;;;;;;;2.87;2.20;;;;;;;10.91;100.00;100837.91;4977399;28;20027;-81
2022/10/22 03:12:10;;;;;;;2.30;2.10;;;;;;;10.92;100.00;100841.34;4977573;28;20546;-81
2022/10/22 03:14:35;;;;;;;3.57;2.30;;;;;;;10.95;100.00;100847.34;4969953;28;20388;-81
2022/10/22 03:17:01;;;;;;;3.27;2.20;;;;;;;10.95;100.00;100847.34;4957574;29;20031;-81
2022/10/22 03:19:26;;;;;;;2.93;2.30;;;;;;;10.97;100.00;100848.19;4958140;29;20041;-81
2022/10/22 03:21:56;;;;;;;4.13;2.30;;;;;;;11.03;100.00;100848.97;4958368;28;20039;-81
2022/10/22 03:24:37;;;;;;;2.60;2.33;;;;;;;11.03;100.00;100843.78;4966214;28;20093;-81
2022/10/22 03:27:03;;;;;;;4.30;2.35;;;;;;;11.05;100.00;100849.78;4977482;28;20023;-81
2022/10/22 03:29:32;;;;;;;3.67;2.50;;;;;;;11.07;100.00;100850.59;4977775;28;20027;-81
2022/10/22 03:31:57;;;;;;;2.55;2.22;;;;;;;11.13;100.00;100859.16;4976285;28;20038;-81
2022/10/22 03:34:23;;;;;;;4.40;2.70;;;;;;;11.20;100.00;100857.31;4977817;28;20037;-81
2022/10/22 03:36:49;;;;;;;3.93;2.53;;;;;;;11.27;100.00;100858.91;4976879;28;20031;-81
2022/10/22 03:39:16;;;;;;;4.57;2.45;;;;;;;11.32;100.00;100864.00;4977454;28;20030;-81
2022/10/22 03:41:43;;;;;;;4.82;2.60;;;;;;;11.34;100.00;100862.25;4976884;28;20034;-81
2022/10/22 03:44:09;;;;;;;4.40;2.58;;;;;;;11.38;100.00;100868.25;4962480;28;20085;-81
2022/10/22 03:46:34;;;;;;;3.63;2.50;;;;;;;11.37;100.00;100872.59;4957925;29;20444;-82
2022/10/22 03:48:59;;;;;;;5.73;2.90;;;;;;;11.38;100.00;100870.84;4957606;29;20055;-81
2022/10/22 03:51:26;;;;;;;3.93;2.57;;;;;;;11.38;100.00;100870.84;4959875;28;20034;-81
2022/10/22 03:53:52;;;;;;;;;;;;;;;11.38;100.00;100874.31;4977021;28;20043;-81
2022/10/22 03:56:17;;;;;;;2.93;2.50;;;;;;;11.39;100.00;100877.75;4977108;28;19914;-81
2022/10/22 03:58:42;;;;;;;6.30;3.00;;;;;;;11.39;100.00;100878.63;4976320;28;20023;-81
2022/10/22 04:01:10;;;;;;;7.23;3.10;;;;;;;11.40;100.00;100877.75;4976924;28;20031;-81
2022/10/22 04:03:36;;;;;;;4.85;2.70;;;;;;;11.42;100.00;100877.72;4977102;28;20018;-81
2022/10/22 04:06:11;;;;;;;3.77;2.80;;;;;;;11.42;100.00;100875.97;4975955;28;20033;-81
2022/10/22 04:08:38;;;;;;;3.55;2.80;;;;;;;11.44;100.00;100879.38;4973817;28;20491;-81
2022/10/22 04:11:04;;;;;;;6.70;3.45;;;;;;;11.44;100.00;100881.97;4976707;28;20493;-81
2022/10/22 04:13:29;;;;;;;5.20;2.90;;;;;;;11.46;100.00;100884.56;4976024;28;20058;-81
2022/10/22 04:15:55;;;;;;;4.53;2.67;;;;;;;11.48;100.00;100888.00;4973818;28;20027;-81
2022/10/22 04:18:21;;;;;;;9.43;3.07;;;;;;;11.48;100.00;100882.81;4957321;29;20069;-83
2022/10/22 04:20:47;;;;;;;4.25;2.70;;;;;;;11.47;100.00;100885.41;4971922;28;20122;-81
2022/10/22 04:23:13;;;;;;;5.43;2.80;;;;;;;11.49;100.00;100892.28;4976352;28;20122;-81
2022/10/22 04:25:38;;;;;;;4.60;2.43;;;;;;;11.48;100.00;100893.22;4976529;28;20023;-81
2022/10/22 04:28:07;;;;;;;4.67;2.70;;;;;;;11.49;100.00;100894.06;4975826;28;20023;-81
2022/10/22 04:30:33;;;;;;;3.30;2.33;;;;;;;11.50;100.00;100890.56;4975926;28;20495;-81
2022/10/22 04:32:58;;;;;;;4.45;2.50;;;;;;;11.49;100.00;100887.09;4975302;28;20038;-81
2022/10/22 04:35:23;;;;;;;3.20;2.60;;;;;;;11.49;100.00;100894.06;4976445;28;20479;-81
2022/10/22 04:37:49;;;;;;;4.33;2.50;;;;;;;11.49;100.00;100889.69;4976502;28;20085;-81
2022/10/22 04:40:14;;;;;;;5.40;2.30;;;;;;;11.50;100.00;100891.41;4957009;28;20081;-81
2022/10/22 04:42:39;;;;;;;3.57;2.53;;;;;;;11.50;100.00;100891.41;4957008;28;20023;-81
2022/10/22 04:45:05;;;;;;;4.23;2.67;;;;;;;11.52;100.00;100889.66;4956549;29;20035;-82
2022/10/22 04:47:30;;;;;;;4.70;2.40;;;;;;;11.55;100.00;100891.31;4962386;28;20019;-81
2022/10/22 04:49:55;;;;;;;4.50;2.50;;;;;;;11.57;100.00;100894.75;4975952;28;20027;-81
2022/10/22 04:52:21;;;;;;;2.73;2.10;;;;;;;11.57;100.00;100893.03;4975806;28;20027;-81
2022/10/22 04:54:46;;;;;;;3.63;2.20;;;;;;;11.61;100.00;100900.75;4975270;28;20070;-81
2022/10/22 04:57:13;;;;;;;3.27;2.17;;;;;;;11.62;100.00;100905.94;4975953;28;20037;-81
2022/10/22 04:59:38;;;;;;;3.35;2.13;;;;;;;11.58;100.00;100905.16;4976138;28;20395;-81
2022/10/22 05:02:03;;;;;;;4.33;2.20;;;;;;;11.56;100.00;100899.13;4974738;28;20019;-81
2022/10/22 05:04:29;;;;;;;3.17;2.30;;;;;;;11.55;100.00;100904.31;4975793;28;20134;-81
2022/10/22 05:06:54;;;;;;;3.43;2.10;;;;;;;11.55;100.00;100907.78;4975410;28;20027;-82
2022/10/22 05:09:20;;;;;;;3.63;2.23;;;;;;;11.55;100.00;100904.31;4975375;28;20106;-81
2022/10/22 05:11:48;;;;;;;1.80;1.70;;;;;;;11.56;100.00;100911.22;4974055;28;20027;-82
2022/10/22 05:14:19;;;;;;;2.90;2.00;;;;;;;11.55;100.00;100906.91;4975501;28;20038;-82
2022/10/22 05:16:46;;;;;;;3.92;2.00;;;;;;;11.54;100.00;100911.28;4955914;28;20388;-81
2022/10/22 05:19:18;;;;;;;2.85;2.10;;;;;;;11.55;100.00;100907.78;4956340;29;20513;-81
2022/10/22 05:21:44;;;;;;;2.45;1.83;;;;;;;11.56;100.00;100914.72;4956157;29;20361;-82
2022/10/22 05:24:09;;;;;;;4.90;2.40;;;;;;;11.58;100.00;100909.47;4955474;29;20031;-82
2022/10/22 05:26:34;;;;;;;2.80;2.23;;;;;;;11.62;100.00;100916.34;4955755;28;20034;-82
2022/10/22 05:28:59;;;;;;;2.77;2.10;;;;;;;11.65;100.00;100918.00;4955593;29;20027;-81
2022/10/22 05:31:27;;;;;;;4.03;2.40;;;;;;;11.65;100.00;100918.84;4970863;28;20038;-81
2022/10/22 05:33:52;;;;;;;2.67;2.10;;;;;;;11.67;100.00;100911.91;4975031;28;20035;-81
2022/10/22 05:36:20;;;;;;;5.63;2.53;;;;;;;11.69;100.00;100915.31;4974440;28;20445;-81
2022/10/22 05:38:46;;;;;;;4.82;2.40;;;;;;;11.69;100.00;100915.31;4975197;28;20031;-82
2022/10/22 05:41:14;;;;;;;4.53;2.60;;;;;;;11.70;100.00;100914.44;4974914;28;20045;-82
2022/10/22 05:43:40;;;;;;;3.55;2.30;;;;;;;11.70;100.00;100914.44;4971074;28;20035;-82
2022/10/22 05:46:26;;;;;;;3.63;2.30;;;;;;;11.73;100.00;100923.91;4956962;28;20484;-81
2022/10/22 05:48:59;;;;;;;5.10;2.50;;;;;;;11.73;100.00;100924.78;4974736;28;20029;-82
2022/10/22 05:51:27;;;;;;;5.40;2.65;;;;;;;11.74;100.00;100931.72;4970848;28;20066;-81
2022/10/22 05:53:55;;;;;;;4.85;2.65;;;;;;;11.75;100.00;100932.56;4958455;28;20050;-81
2022/10/22 05:56:21;;;;;;;6.65;2.80;;;;;;;11.76;100.00;100934.28;4974905;28;20026;-83
2022/10/22 05:58:47;;;;;;;6.55;2.42;;;;;;;11.78;100.00;100944.63;4973650;28;20107;-82
2022/10/22 06:01:24;;;;;;;2.93;2.20;;;;;;;11.77;100.00;100941.19;4974503;28;20480;-82
2022/10/22 06:03:52;;;;;;;3.03;2.08;;;;;;;11.78;100.00;100948.09;4974785;28;20031;-81
2022/10/22 06:06:21;;;;;;;4.72;2.10;;;;;;;11.78;100.00;100952.44;4973845;28;20023;-82
2022/10/22 06:08:49;;;;;;;5.63;2.60;;;;;;;11.78;100.00;100952.44;4974629;28;20038;-81
2022/10/22 06:11:16;;;;;;;7.53;2.72;;;;;;;11.78;100.00;100952.44;4955072;29;20030;-81
2022/10/22 06:13:42;;;;;;;5.45;2.63;;;;;;;11.80;100.00;100956.75;4954272;29;20051;-81
2022/10/22 06:16:07;;;;;;;5.70;2.40;;;;;;;11.81;100.00;100953.25;4954544;29;20031;-81
2022/10/22 06:18:33;;;;;;;3.03;2.00;;;;;;;11.82;100.00;100967.09;4954394;29;20066;-82
2022/10/22 06:21:07;;;;;;;6.90;2.37;;;;;;;11.83;100.00;100967.06;4955314;29;20031;-81
2022/10/22 06:23:32;;;;;;;6.47;2.80;;;;;;;11.83;100.00;100974.88;4962014;28;20394;-80
2022/10/22 06:25:59;;;;;;;7.97;2.80;;;;;;;11.84;100.00;100973.13;4973168;28;20023;-81
2022/10/22 06:28:24;;;;;;;5.72;2.70;;;;;;;11.85;100.00;100980.91;4974388;28;20022;-81
2022/10/22 06:30:50;;;;;;;5.23;2.33;;;;;;;11.85;100.00;100982.66;4973742;28;20034;-81
2022/10/22 06:33:15;;;;;;;6.17;2.60;;;;;;;11.86;100.00;100987.81;4973289;28;20117;-81
2022/10/22 06:35:40;;;;;;;5.37;2.27;;;;;;;11.89;100.00;100992.97;4974127;28;20034;-81
2022/10/22 06:38:05;;;;;;;5.40;2.10;;;;;;;11.92;100.00;100993.81;4973413;28;20031;-81
2022/10/22 06:40:32;;;;;;;6.17;2.50;;;;;;;11.92;100.00;100996.41;4972973;28;20027;-81
2022/10/22 06:43:00;;;;;;;3.42;2.20;;;;;;;11.91;100.00;101011.13;4974014;28;20054;-81
2022/10/22 06:45:25;;;;;;;2.92;1.98;;;;;;;11.90;100.00;101001.63;4974098;28;20076;-82
2022/10/22 06:47:50;;;;;;;3.10;2.10;;;;;;;11.90;100.00;101006.81;4973067;28;20058;-81
2022/10/22 06:50:16;;;;;;;7.93;2.33;;;;;;;11.92;100.00;101017.22;4973689;28;20035;-82
2022/10/22 06:52:41;;;;;;;5.87;2.50;;;;;;;11.95;100.00;101019.75;4973551;28;20027;-82
2022/10/22 06:55:07;;;;;;;5.73;2.27;;;;;;;11.97;100.00;101025.78;4971042;28;20114;-83
2022/10/22 06:57:32;;;;;;;4.73;2.17;;;;;;;11.97;100.00;101013.66;4966616;28;20461;-83
2022/10/22 06:59:58;;;;;;;4.33;2.20;;;;;;;11.98;100.00;101031.00;4954643;28;20107;-81
2022/10/22 07:02:23;;;;;;;5.27;2.17;;;;;;;11.97;100.00;101030.97;4954094;28;20081;-82
2022/10/22 07:04:48;;;;;;;2.97;1.93;;;;;;;11.98;100.00;101046.59;4959566;28;20019;-82
2022/10/22 07:07:14;;;;;;;3.57;2.10;;;;;;;11.98;100.00;101041.41;4953755;28;20042;-82
2022/10/22 07:09:39;;;;;;;2.67;1.90;;;;;;;11.98;100.00;101040.53;4953632;29;20023;-82
2022/10/22 07:12:05;;;;;;;4.40;2.27;;;;;;;12.01;100.00;101054.34;4954104;28;20043;-81
2022/10/22 07:14:30;;;;;;;6.43;2.37;;;;;;;12.07;100.00;101057.72;4967560;28;20114;-82
2022/10/22 07:16:56;;;;;;;3.83;2.00;;;;;;;12.12;100.00;101058.47;4959354;28;20023;-84
2022/10/22 07:19:21;;;;;;;3.73;1.80;;;;;;;12.18;100.00;101054.03;4973782;28;20027;-82
2022/10/22 07:21:46;;;;;;;3.30;1.93;;;;;;;12.24;100.00;101058.25;4970961;28;20490;-83
2022/10/22 07:24:12;;;;;;;3.90;2.20;;;;;;;12.30;100.00;101058.16;4973144;28;20039;-83
2022/10/22 07:26:37;;;;;;;5.17;1.80;;;;;;;12.35;100.00;101069.31;4973482;28;20026;-86
2022/10/22 07:29:04;;;;;;;5.47;2.30;;;;;;;12.40;100.00;101071.84;4972767;28;20027;-83
2022/10/22 07:31:29;;;;;;;4.20;2.10;;;;;;;12.42;100.00;101072.66;4971171;28;20435;-84
2022/10/22 07:33:55;;;;;;;5.37;2.50;;;;;;;12.42;100.00;101074.44;4972725;28;20058;-83
2022/10/22 07:36:21;;;;;;;3.93;2.17;;;;;;;12.41;100.00;101075.31;4972853;28;20446;-83
2022/10/22 07:38:51;;;;;;;3.47;2.27;;;;;;;12.41;100.00;101086.56;4971873;28;20377;-85
2022/10/22 07:41:17;;;;;;;4.68;2.45;;;;;;;12.41;100.00;101081.34;4973890;28;20037;-84
2022/10/22 07:43:42;;;;;;;5.33;2.30;;;;;;;12.44;100.00;101086.50;4959973;28;20027;-84
2022/10/22 07:46:07;;;;;;;3.57;2.20;;;;;;;12.50;100.00;101088.16;4969561;28;20541;-84
2022/10/22 07:48:34;;;;;;;5.13;2.47;;;;;;;12.54;100.00;101095.00;4954957;28;20027;-83
2022/10/22 07:51:00;;;;;;;4.30;2.45;;;;;;;12.60;100.00;101100.09;4955641;28;20119;-83
2022/10/22 07:53:25;;;;;;;4.13;2.37;;;;;;;12.67;100.00;101096.47;4962594;28;20114;-83
2022/10/22 07:55:51;;;;;;;3.67;2.27;;;;;;;12.75;100.00;101100.69;4976303;28;20109;-83
2022/10/22 07:58:20;;;;;;;5.23;2.40;;;;;;;12.79;100.00;101103.19;4975915;28;20111;-82
2022/10/22 08:00:46;;;;;;;3.85;2.20;;;;;;;12.85;100.00;101101.34;4969707;28;20042;-82
2022/10/22 08:03:13;;;;;;;4.88;2.40;;;;;;;12.91;100.00;101093.41;4976627;28;20033;-82
2022/10/22 08:05:38;;;;;;;5.53;2.30;;;;;;;12.96;100.00;101101.97;4976372;28;20383;-82
2022/10/22 08:08:05;;;;;;;6.27;2.50;;;;;;;13.01;100.00;101114.88;4976464;28;20031;-82
2022/10/22 08:10:31;;;;;;;5.90;2.20;;;;;;;13.03;100.00;101114.00;4976064;28;20114;-82
2022/10/22 08:12:57;;;;;;;4.47;2.30;;;;;;;13.07;100.00;101120.84;4975425;28;20134;-82
2022/10/22 08:15:24;;;;;;;6.00;2.40;;;;;;;13.12;100.00;101115.53;4976615;28;20039;-83
2022/10/22 08:17:49;;;;;;;5.53;2.20;;;;;;;13.19;100.00;101116.25;4976412;28;20018;-82
2022/10/22 08:20:16;;;;;;;4.07;2.00;;;;;;;13.28;100.00;101118.69;4974270;28;20050;-82
2022/10/22 08:22:41;;;;;;;4.87;2.10;;;;;;;13.36;100.00;101121.97;4976471;28;20026;-82
2022/10/22 08:25:07;;;;;;;4.50;2.10;;;;;;;13.48;100.00;101123.44;4975376;28;20479;-82
2022/10/22 08:27:32;;;;;;;6.57;2.60;;;;;;;13.56;100.00;101128.50;4975946;28;20043;-82
2022/10/22 08:29:57;;;;;;;7.07;2.40;;;;;;;13.63;100.00;101131.81;4976227;28;20027;-83
2022/10/22 08:32:22;;;;;;;6.10;2.33;;;;;;;13.72;100.00;101136.81;4975542;28;20065;-82
2022/10/22 08:34:48;;;;;;;5.60;2.20;;;;;;;13.85;100.00;101145.19;4976450;28;20030;-82
2022/10/22 08:37:13;;;;;;;2.57;1.93;;;;;;;13.94;100.00;101150.22;4976231;28;20534;-82
2022/10/22 08:39:40;;;;;;;4.37;2.00;;;;;;;14.01;100.00;101149.16;4975102;28;20035;-82
2022/10/22 08:42:42;;;;;;;4.10;1.85;;;;;;;14.14;100.00;101146.25;4976144;28;20053;-83
2022/10/22 08:45:13;;;;;;;3.67;2.03;;;;;;;14.25;100.00;101157.28;4975926;28;20035;-82
2022/10/22 08:48:21;;;;;;;3.83;1.70;;;;;;;14.31;100.00;101159.72;4975049;28;20117;-82
2022/10/22 08:50:50;;;;;;;5.07;2.00;;;;;;;14.33;100.00;101165.75;4971782;28;20046;-83
2022/10/22 08:53:27;;;;;;;4.47;1.88;;;;;;;14.40;100.00;101179.50;4975353;28;20042;-82
2022/10/22 08:55:53;;;;;;;3.72;1.88;;;;;;;14.41;100.00;101176.00;4975729;28;20182;-82
2022/10/22 08:58:56;;;;;;;5.85;1.73;;;;;;;14.44;100.00;101173.31;4975714;28;20030;-82
2022/10/22 09:01:40;;;;;;;3.25;1.80;;;;;;;14.46;100.00;101187.19;4896268;29;20044;-82
2022/10/22 09:04:13;;;;;;;4.35;1.75;;;;;;;14.49;100.00;101183.63;4897084;29;20123;-83
2022/10/22 09:06:43;;;;;;;4.38;1.90;;;;;;;14.51;100.00;101184.47;4946944;28;20046;-83
2022/10/22 09:09:13;;;;;;;4.63;1.80;;;;;;;14.52;100.00;101186.19;4974989;28;20034;-80
2022/10/22 09:11:42;;;;;;;7.05;2.03;;;;;;;14.52;100.00;101194.03;4975541;28;20033;-83
2022/10/22 09:14:14;;;;;;;4.70;1.77;;;;;;;14.55;100.00;101196.53;4975278;28;20038;-80
2022/10/22 09:16:48;;;;;;;4.57;1.70;;;;;;;14.55;100.00;101200.91;4974960;28;20027;-81
2022/10/22 09:19:24;;;;;;;4.53;2.00;;;;;;;14.52;99.73;101194.88;4975049;28;20387;-80
2022/10/22 09:21:59;;;;;;;4.85;1.77;;;;;;;14.54;99.88;101207.88;4974773;28;20542;-81
2022/10/22 09:24:27;;;;;;;2.92;1.73;;;;;;;14.54;98.85;101212.25;4975459;28;20030;-82
2022/10/22 09:26:52;;;;;;;3.22;1.80;;;;;;;14.54;99.32;101213.09;4975423;28;20039;-82
2022/10/22 09:29:23;;;;;;;5.57;1.97;;;;;;;14.52;99.52;101218.38;4974604;28;20026;-82
2022/10/22 09:31:48;;;;;;;5.13;1.98;;;;;;;14.54;99.65;101210.47;4975294;28;20141;-82
2022/10/22 09:34:18;;;;;;;3.27;1.70;;;;;;;14.55;100.00;101216.56;4975020;28;20042;-83
2022/10/22 09:36:43;;;;;;;7.15;2.10;;;;;;;14.60;99.10;101223.41;4974583;28;20425;-83
2022/10/22 09:39:32;;;;;;;3.53;1.83;;;;;;;14.66;99.41;101228.44;4974892;28;20125;-84
2022/10/22 09:41:57;;;;;;;3.85;1.70;;;;;;;14.71;99.71;101238.81;4974425;28;20476;-85
2022/10/22 09:44:22;;;;;;;3.43;1.70;;;;;;;14.75;100.00;101232.63;4974623;28;20113;-85
2022/10/22 09:46:48;;;;;;;2.10;1.30;;;;;;;14.79;99.96;101239.47;4975177;28;20147;-84
2022/10/22 09:49:16;;;;;;;1.30;1.20;;;;;;;14.83;100.00;101242.88;4974809;28;20390;-84
2022/10/22 09:51:52;;;;;;;2.78;1.40;;;;;;;14.87;100.00;101236.63;4974144;28;20380;-84
2022/10/22 09:54:39;;;;;;;3.13;1.60;;;;;;;14.90;99.41;101246.19;4974827;28;20059;-84
2022/10/22 09:57:15;;;;;;;3.85;1.70;;;;;;;14.91;96.91;101245.28;4973516;28;20047;-85
2022/10/22 09:59:42;;;;;;;5.20;1.67;;;;;;;14.93;98.86;101257.41;4974956;28;20055;-84
2022/10/22 10:02:13;;;;;;;3.58;1.65;;;;;;;14.95;99.01;101257.34;4959174;28;20019;-83
2022/10/22 10:05:01;;;;;;;3.22;1.67;;;;;;;14.93;98.47;101262.63;4954989;29;20027;-84
2022/10/22 10:07:29;;;;;;;2.80;1.70;;;;;;;14.95;98.64;101266.06;4958522;28;20015;-84
2022/10/22 10:09:55;;;;;;;2.47;1.40;;;;;;;14.97;97.84;101269.47;4974151;28;20498;-84
2022/10/22 10:12:31;;;;;;;2.13;1.67;;;;;;;15.01;98.28;101279.84;4973737;28;20033;-84
2022/10/22 10:14:59;;;;;;;3.80;1.70;;;;;;;15.04;97.82;101287.59;4973319;28;20027;-83
2022/10/22 10:17:43;;;;;;;1.95;1.60;;;;;;;15.09;98.26;101283.09;4974285;28;20035;-84
2022/10/22 10:20:24;;;;;;;2.40;1.60;;;;;;;15.16;98.32;101287.28;4974533;28;20037;-84
2022/10/22 10:23:22;;;;;;;2.30;1.60;;;;;;;15.25;97.58;101286.19;4968978;28;20467;-84
2022/10/22 10:26:12;;;;;;;3.72;1.40;;;;;;;15.32;96.82;101292.94;4954142;29;20035;-84
2022/10/22 10:28:56;;;;;;;4.38;1.63;;;;;;;15.38;96.85;101297.97;4956349;28;20111;-84
2022/10/22 10:31:38;;;;;;;3.53;1.63;;;;;;;15.45;97.34;101301.28;4955085;29;20391;-84
2022/10/22 10:34:15;;;;;;;4.32;1.83;;;;;;;15.52;95.68;101299.34;4954229;29;20027;-84
2022/10/22 10:36:53;;;;;;;;;;;;;;;15.62;96.32;101302.56;4955438;29;20400;-84
2022/10/22 10:39:38;;;;;;;6.40;2.00;;;;;;;15.72;95.32;101301.41;4954400;29;19997;-84
2022/10/22 10:42:18;;;;;;;5.25;2.00;;;;;;;15.80;95.68;101301.19;4954665;29;20035;-84
2022/10/22 10:45:02;;;;;;;4.70;2.13;;;;;;;15.84;93.42;101310.63;4954669;29;20027;-84
2022/10/22 10:47:55;;;;;;;5.60;2.30;;;;;;;15.88;92.90;101305.28;4954320;29;20108;-84
2022/10/22 10:50:29;;;;;;;5.95;2.15;;;;;;;16.05;91.60;101309.16;4954944;29;20035;-85
2022/10/22 10:53:16;;;;;;;5.53;2.40;;;;;;;16.12;90.93;101310.69;4953818;29;20046;-84
2022/10/22 10:56:08;;;;;;;4.60;2.10;;;;;;;16.13;92.28;101316.78;4953120;29;20047;-85
2022/10/22 10:58:49;;;;;;;3.70;1.90;;;;;;;16.12;92.55;101309.84;4953337;28;20035;-84
2022/10/22 11:01:23;;;;;;;5.88;2.33;;;;;;;16.14;90.91;101306.25;4971672;28;20026;-84
2022/10/22 11:04:00;;;;;;;4.85;2.00;;;;;;;16.13;91.18;101304.53;4954598;28;20031;-84
2022/10/22 11:06:29;;;;;;;5.72;2.10;;;;;;;16.20;91.46;101311.31;4954076;28;20032;-84
2022/10/22 11:09:13;;;;;;;3.97;2.00;;;;;;;16.33;89.30;101309.16;4953634;29;20448;-85
2022/10/22 11:11:49;;;;;;;7.10;2.22;;;;;;;16.41;91.69;101308.03;4953909;29;20066;-85
2022/10/22 11:14:22;;;;;;;3.83;1.88;;;;;;;16.49;91.26;101306.91;4953438;29;20035;-85
2022/10/22 11:17:00;;;;;;;4.85;2.00;;;;;;;16.59;90.55;101312.69;4955225;28;20477;-84
2022/10/22 11:19:44;;;;;;;4.57;1.83;;;;;;;16.62;90.97;101307.34;4972987;28;20031;-84
2022/10/22 11:22:20;;;;;;;2.92;1.92;;;;;;;16.61;90.73;101308.25;4971049;28;20377;-83
2022/10/22 11:24:47;;;;;;;4.13;1.83;;;;;;;16.60;89.55;101317.03;4971948;28;20035;-82
2022/10/22 11:27:15;;;;;;;4.90;2.15;;;;;;;16.61;87.63;101310.03;4975430;28;20030;-81
2022/10/22 11:29:48;;;;;;;3.60;1.80;;;;;;;16.69;88.82;101308.00;4974590;28;20038;-81
2022/10/22 11:32:18;;;;;;;5.75;2.67;;;;;;;16.78;87.22;101307.69;4975050;28;20077;-81